createdAt,value
2019-06-20T00:00:54.292Z,73.74
2019-06-20T00:01:54.257Z,73.94
2019-06-20T00:02:54.233Z,73.54
2019-06-20T00:03:54.208Z,73.74
2019-06-20T00:04:54.201Z,73.26
2019-06-20T00:05:54.179Z,73.57
2019-06-20T00:06:54.231Z,73.47
2019-06-20T00:07:54.169Z,73.57
2019-06-20T00:08:54.150Z,74.38
2019-06-20T00:09:54.148Z,72.82
2019-06-20T00:10:54.139Z,72.31
2019-06-20T00:11:54.119Z,73.43
2019-06-20T00:13:00.465Z,73.23
2019-06-20T00:13:55.103Z,73.74
2019-06-20T00:14:54.092Z,72.62
2019-06-20T00:15:54.083Z,72.82
2019-06-20T00:16:54.069Z,73.47
2019-06-20T00:17:54.055Z,73.97
2019-06-20T00:18:54.078Z,74.58
2019-06-20T00:19:54.045Z,74.38
2019-06-20T00:20:54.047Z,74.73
2019-06-20T00:21:54.018Z,75.44
2019-06-20T00:22:54.057Z,74.58
2019-06-20T00:23:53.997Z,74.58
2019-06-20T00:24:54.017Z,75.40
2019-06-20T00:25:53.969Z,74.58
2019-06-20T00:26:53.958Z,74.69
2019-06-20T00:27:53.948Z,74.79
2019-06-20T00:28:53.937Z,74.79
2019-06-20T00:29:53.938Z,75.92
2019-06-20T00:30:53.948Z,74.79
2019-06-20T00:31:53.928Z,74.99
2019-06-20T00:32:53.895Z,74.18
2019-06-20T00:33:53.905Z,75.60
2019-06-20T00:34:53.865Z,75.40
2019-06-20T00:35:53.866Z,76.42
2019-06-20T00:36:53.905Z,75.92
2019-06-20T00:37:53.837Z,75.60
2019-06-20T00:38:53.826Z,74.69
2019-06-20T00:39:53.814Z,74.28
2019-06-20T00:40:53.823Z,75.20
2019-06-20T00:41:53.834Z,75.60
2019-06-20T00:42:53.816Z,76.22
2019-06-20T00:43:53.766Z,76.01
2019-06-20T00:44:53.776Z,74.99
2019-06-20T00:45:53.754Z,74.35
2019-06-20T00:46:53.739Z,74.86
2019-06-20T00:47:53.861Z,73.74
2019-06-20T00:48:53.751Z,74.04
2019-06-20T00:49:53.747Z,73.64
2019-06-20T00:50:53.684Z,72.52
2019-06-20T00:51:53.687Z,73.94
2019-06-20T00:52:53.711Z,74.76
2019-06-20T00:53:53.653Z,74.65
2019-06-20T00:54:53.645Z,72.92
2019-06-20T00:55:53.633Z,73.02
2019-06-20T00:56:53.652Z,74.04
2019-06-20T00:57:53.617Z,73.74
2019-06-20T00:58:53.644Z,74.65
2019-06-20T00:59:53.592Z,74.76
2019-06-20T01:00:53.622Z,74.55
2019-06-20T01:01:53.572Z,74.15
2019-06-20T01:02:53.592Z,74.35
2019-06-20T01:03:53.562Z,74.25
2019-06-20T01:04:53.570Z,73.84
2019-06-20T01:05:53.523Z,74.76
2019-06-20T01:06:53.510Z,75.27
2019-06-20T01:07:53.553Z,75.78
2019-06-20T01:08:53.509Z,75.98
2019-06-20T01:09:53.483Z,77.30
2019-06-20T01:10:53.470Z,76.90
2019-06-20T01:11:53.462Z,77.20
2019-06-20T01:12:53.451Z,76.69
2019-06-20T01:13:53.469Z,76.28
2019-06-20T01:14:53.573Z,76.62
2019-06-20T01:15:53.423Z,76.79
2019-06-20T01:16:53.418Z,75.47
2019-06-20T01:17:53.431Z,74.25
2019-06-20T01:18:53.576Z,74.45
2019-06-20T01:19:53.400Z,76.39
2019-06-20T01:20:53.362Z,75.16
2019-06-20T01:21:53.350Z,74.86
2019-06-20T01:22:53.391Z,75.78
2019-06-20T01:23:53.367Z,77.20
2019-06-20T01:24:53.311Z,77.71
2019-06-20T01:25:53.408Z,75.78
2019-06-20T01:26:53.297Z,76.69
2019-06-20T01:27:53.279Z,75.88
2019-06-20T01:28:53.299Z,76.49
2019-06-20T01:29:53.314Z,77.20
2019-06-20T01:30:53.241Z,76.08
2019-06-20T01:31:53.267Z,76.49
2019-06-20T01:32:53.228Z,76.69
2019-06-20T01:33:53.210Z,74.65
2019-06-20T01:34:53.209Z,75.37
2019-06-20T01:35:53.227Z,74.35
2019-06-20T01:36:53.187Z,73.80
2019-06-20T01:37:53.178Z,71.97
2019-06-20T01:38:53.170Z,71.02
2019-06-20T01:39:53.158Z,72.14
2019-06-20T01:40:53.183Z,72.58
2019-06-20T01:41:53.134Z,72.28
2019-06-20T01:42:53.150Z,72.78
2019-06-20T01:43:53.108Z,73.40
2019-06-20T01:44:53.088Z,73.19
2019-06-20T01:45:53.085Z,73.50
2019-06-20T01:46:53.069Z,72.28
2019-06-20T01:47:53.063Z,71.12
2019-06-20T01:48:53.085Z,72.04
2019-06-20T01:49:53.078Z,71.64
2019-06-20T01:50:53.091Z,72.34
2019-06-20T01:51:53.023Z,71.94
2019-06-20T01:52:53.007Z,73.30
2019-06-20T01:53:53.084Z,73.40
2019-06-20T01:54:52.983Z,73.30
2019-06-20T01:55:53.014Z,74.32
2019-06-20T01:56:52.963Z,74.93
2019-06-20T01:57:52.978Z,75.47
2019-06-20T01:58:52.937Z,75.67
2019-06-20T01:59:52.925Z,75.67
2019-06-20T02:00:52.914Z,75.67
2019-06-20T02:01:52.944Z,75.98
2019-06-20T02:02:52.899Z,77.55
2019-06-20T02:03:53.025Z,77.55
2019-06-20T02:04:52.871Z,77.55
2019-06-20T02:05:52.863Z,77.85
2019-06-20T02:06:52.865Z,77.95
2019-06-20T02:07:52.873Z,77.75
2019-06-20T02:08:52.863Z,77.78
2019-06-20T02:09:52.894Z,77.89
2019-06-20T02:10:52.812Z,78.30
2019-06-20T02:11:52.793Z,78.50
2019-06-20T02:12:52.808Z,78.50
2019-06-20T02:14:06.485Z,78.50
2019-06-20T02:14:53.794Z,77.98
2019-06-20T02:15:52.749Z,78.30
2019-06-20T02:16:52.742Z,78.23
2019-06-20T02:17:52.735Z,78.43
2019-06-20T02:18:52.722Z,78.64
2019-06-20T02:19:52.728Z,78.84
2019-06-20T02:20:52.732Z,78.64
2019-06-20T02:21:52.684Z,78.12
2019-06-20T02:22:52.670Z,78.23
2019-06-20T02:23:52.662Z,78.33
2019-06-20T02:24:52.660Z,78.53
2019-06-20T02:25:52.646Z,78.74
2019-06-20T02:26:52.671Z,78.74
2019-06-20T02:27:52.626Z,76.87
2019-06-20T02:28:52.608Z,78.19
2019-06-20T02:29:52.590Z,78.39
2019-06-20T02:30:52.579Z,77.48
2019-06-20T02:31:52.715Z,76.97
2019-06-20T02:32:52.594Z,77.17
2019-06-20T02:33:52.553Z,76.56
2019-06-20T02:34:52.572Z,76.35
2019-06-20T02:35:52.538Z,76.22
2019-06-20T02:36:52.559Z,76.73
2019-06-20T02:37:52.519Z,76.83
2019-06-20T02:38:52.506Z,77.34
2019-06-20T02:39:52.487Z,77.55
2019-06-20T02:40:52.469Z,77.44
2019-06-20T02:41:52.470Z,77.34
2019-06-20T02:42:52.489Z,77.34
2019-06-20T02:43:52.438Z,77.95
2019-06-20T02:44:52.459Z,77.44
2019-06-20T02:45:52.419Z,77.14
2019-06-20T02:46:52.411Z,76.83
2019-06-20T02:47:52.397Z,76.83
2019-06-20T02:48:52.388Z,77.03
2019-06-20T02:49:52.406Z,76.62
2019-06-20T02:50:52.367Z,76.53
2019-06-20T02:51:52.358Z,76.93
2019-06-20T02:52:52.351Z,76.93
2019-06-20T02:53:52.366Z,75.92
2019-06-20T02:54:52.357Z,75.57
2019-06-20T02:55:52.323Z,75.88
2019-06-20T02:56:52.297Z,75.88
2019-06-20T02:57:52.296Z,75.98
2019-06-20T02:58:52.276Z,76.18
2019-06-20T02:59:52.295Z,76.28
2019-06-20T03:00:52.287Z,75.27
2019-06-20T03:01:52.246Z,75.37
2019-06-20T03:02:52.295Z,75.88
2019-06-20T03:03:52.224Z,76.28
2019-06-20T03:04:52.272Z,76.69
2019-06-20T03:05:52.197Z,77.10
2019-06-20T03:06:52.193Z,77.03
2019-06-20T03:07:52.174Z,76.93
2019-06-20T03:08:52.167Z,76.83
2019-06-20T03:09:52.160Z,77.03
2019-06-20T03:10:52.199Z,77.14
2019-06-20T03:11:52.205Z,77.34
2019-06-20T03:12:52.136Z,77.24
2019-06-20T03:13:52.111Z,76.83
2019-06-20T03:14:52.118Z,76.12
2019-06-20T03:15:52.091Z,76.83
2019-06-20T03:16:52.112Z,77.24
2019-06-20T03:17:52.063Z,77.34
2019-06-20T03:18:52.063Z,77.37
2019-06-20T03:19:52.083Z,77.27
2019-06-20T03:20:52.039Z,77.58
2019-06-20T03:21:52.083Z,77.58
2019-06-20T03:22:52.010Z,77.78
2019-06-20T03:23:52.043Z,77.07
2019-06-20T03:24:52.006Z,77.58
2019-06-20T03:25:52.029Z,77.68
2019-06-20T03:26:51.962Z,78.39
2019-06-20T03:27:52.050Z,78.30
2019-06-20T03:28:51.941Z,78.02
2019-06-20T03:29:51.932Z,76.59
2019-06-20T03:30:52.045Z,76.59
2019-06-20T03:31:51.963Z,75.74
2019-06-20T03:32:51.941Z,75.44
2019-06-20T03:33:51.893Z,75.74
2019-06-20T03:34:51.881Z,75.54
2019-06-20T03:35:51.861Z,75.54
2019-06-20T03:36:51.859Z,75.85
2019-06-20T03:37:51.891Z,76.39
2019-06-20T03:38:51.829Z,76.50
2019-06-20T03:39:51.823Z,77.31
2019-06-20T03:40:51.850Z,77.72
2019-06-20T03:41:51.800Z,77.82
2019-06-20T03:42:51.786Z,77.72
2019-06-20T03:43:51.780Z,77.82
2019-06-20T03:45:01.718Z,78.37
2019-06-20T03:45:52.802Z,78.47
2019-06-20T03:46:51.746Z,78.27
2019-06-20T03:47:51.738Z,78.88
2019-06-20T03:48:51.725Z,78.67
2019-06-20T03:49:51.711Z,79.18
2019-06-20T03:50:51.697Z,79.28
2019-06-20T03:51:51.858Z,79.08
2019-06-20T03:52:51.678Z,78.67
2019-06-20T03:53:51.667Z,78.57
2019-06-20T03:54:51.659Z,78.67
2019-06-20T03:55:51.658Z,78.67
2019-06-20T03:56:51.678Z,78.57
2019-06-20T03:57:51.619Z,78.47
2019-06-20T03:58:51.704Z,78.77
2019-06-20T03:59:51.597Z,78.67
2019-06-20T04:00:51.586Z,78.88
2019-06-20T04:01:51.689Z,79.08
2019-06-20T04:02:51.593Z,77.96
2019-06-20T04:03:51.556Z,78.77
2019-06-20T04:04:51.576Z,78.88
2019-06-20T04:05:51.535Z,78.16
2019-06-20T04:06:51.530Z,78.47
2019-06-20T04:07:51.526Z,78.16
2019-06-20T04:08:51.522Z,77.96
2019-06-20T04:09:51.498Z,77.86
2019-06-20T04:10:51.555Z,77.96
2019-06-20T04:11:51.465Z,78.06
2019-06-20T04:12:51.453Z,78.06
2019-06-20T04:13:51.444Z,78.27
2019-06-20T04:14:51.434Z,78.12
2019-06-20T04:15:51.421Z,77.72
2019-06-20T04:16:51.445Z,77.92
2019-06-20T04:17:51.394Z,77.82
2019-06-20T04:18:51.387Z,78.23
2019-06-20T04:19:51.374Z,78.23
2019-06-20T04:20:51.411Z,78.43
2019-06-20T04:21:51.366Z,78.33
2019-06-20T04:22:51.360Z,78.64
2019-06-20T04:23:51.334Z,78.64
2019-06-20T04:24:51.332Z,78.64
2019-06-20T04:25:51.313Z,78.74
2019-06-20T04:26:51.344Z,77.48
2019-06-20T04:27:51.319Z,78.09
2019-06-20T04:28:51.279Z,78.60
2019-06-20T04:29:51.273Z,78.70
2019-06-20T04:30:51.271Z,78.26
2019-06-20T04:31:51.300Z,75.88
2019-06-20T04:32:51.242Z,74.89
2019-06-20T04:33:51.225Z,73.94
2019-06-20T04:34:51.221Z,74.21
2019-06-20T04:35:51.201Z,71.84
2019-06-20T04:36:51.189Z,72.11
2019-06-20T04:37:51.220Z,70.55
2019-06-20T04:38:51.207Z,70.76
2019-06-20T04:39:51.174Z,71.94
2019-06-20T04:40:51.190Z,71.80
2019-06-20T04:41:51.142Z,70.08
2019-06-20T04:42:51.121Z,69.07
2019-06-20T04:43:51.110Z,68.15
2019-06-20T04:44:51.100Z,68.76
2019-06-20T04:45:51.141Z,68.73
2019-06-20T04:46:51.099Z,67.08
2019-06-20T04:47:51.068Z,65.86
2019-06-20T04:48:51.120Z,66.27
2019-06-20T04:49:51.041Z,66.80
2019-06-20T04:50:51.089Z,65.99
2019-06-20T04:51:51.031Z,66.57
2019-06-20T04:52:51.123Z,65.15
2019-06-20T04:53:50.999Z,64.64
2019-06-20T04:54:50.989Z,63.93
2019-06-20T04:55:50.991Z,65.66
2019-06-20T04:56:51.000Z,67.08
2019-06-20T04:57:50.959Z,67.72
2019-06-20T04:58:50.961Z,68.23
2019-06-20T04:59:50.937Z,68.29
2019-06-20T05:00:50.972Z,68.66
2019-06-20T05:01:50.921Z,68.06
2019-06-20T05:02:50.909Z,66.54
2019-06-20T05:03:50.912Z,67.38
2019-06-20T05:04:50.878Z,68.70
2019-06-20T05:05:50.877Z,67.98
2019-06-20T05:06:50.898Z,69.47
2019-06-20T05:07:50.873Z,67.68
2019-06-20T05:08:50.845Z,68.26
2019-06-20T05:09:50.826Z,67.24
2019-06-20T05:10:50.858Z,67.34
2019-06-20T05:11:50.806Z,67.68
2019-06-20T05:12:50.826Z,65.86
2019-06-20T05:13:50.789Z,65.25
2019-06-20T05:14:51.556Z,66.50
2019-06-20T05:15:52.987Z,66.09
2019-06-20T05:16:50.775Z,66.80
2019-06-20T05:17:50.779Z,67.18
2019-06-20T05:18:50.790Z,64.41
2019-06-20T05:19:50.721Z,64.11
2019-06-20T05:20:50.876Z,64.65
2019-06-20T05:21:50.696Z,63.27
2019-06-20T05:22:50.683Z,64.38
2019-06-20T05:23:50.707Z,64.41
2019-06-20T05:24:50.715Z,66.50
2019-06-20T05:25:50.815Z,66.07
2019-06-20T05:26:50.645Z,64.55
2019-06-20T05:27:50.644Z,66.14
2019-06-20T05:28:50.622Z,65.47
2019-06-20T05:29:50.604Z,65.80
2019-06-20T05:30:50.643Z,67.82
2019-06-20T05:31:50.584Z,69.31
2019-06-20T05:32:50.595Z,66.82
2019-06-20T05:33:50.567Z,63.04
2019-06-20T05:34:50.571Z,65.29
2019-06-20T05:35:50.603Z,66.71
2019-06-20T05:36:50.534Z,64.31
2019-06-20T05:37:50.526Z,63.90
2019-06-20T05:38:50.513Z,64.85
2019-06-20T05:39:50.519Z,65.25
2019-06-20T05:40:50.483Z,65.86
2019-06-20T05:41:50.515Z,65.73
2019-06-20T05:42:50.543Z,66.30
2019-06-20T05:43:50.457Z,64.15
2019-06-20T05:44:50.443Z,65.06
2019-06-20T05:45:50.473Z,66.61
2019-06-20T05:46:50.424Z,64.04
2019-06-20T05:47:50.410Z,65.96
2019-06-20T05:48:50.458Z,65.66
2019-06-20T05:49:50.424Z,66.16
2019-06-20T05:50:50.373Z,65.69
2019-06-20T05:51:50.367Z,66.91
2019-06-20T05:52:50.350Z,66.80
2019-06-20T05:53:50.353Z,68.12
2019-06-20T05:54:50.392Z,67.41
2019-06-20T05:55:50.476Z,66.09
2019-06-20T05:56:50.310Z,67.31
2019-06-20T05:57:50.351Z,65.69
2019-06-20T05:58:50.624Z,66.30
2019-06-20T05:59:50.285Z,66.50
2019-06-20T06:00:50.262Z,66.09
2019-06-20T06:01:50.258Z,65.79
2019-06-20T06:02:50.480Z,64.30
2019-06-20T06:03:51.259Z,65.14
2019-06-20T06:04:50.221Z,66.56
2019-06-20T06:05:50.212Z,67.75
2019-06-20T06:06:50.190Z,68.35
2019-06-20T06:07:50.187Z,67.14
2019-06-20T06:08:50.186Z,68.46
2019-06-20T06:09:50.221Z,65.55
2019-06-20T06:10:50.202Z,65.42
2019-06-20T06:11:50.152Z,65.11
2019-06-20T06:12:50.129Z,67.75
2019-06-20T06:13:50.237Z,67.03
2019-06-20T06:14:50.099Z,68.05
2019-06-20T06:15:50.637Z,67.55
2019-06-20T06:16:50.220Z,67.95
2019-06-20T06:17:50.077Z,67.14
2019-06-20T06:18:50.067Z,68.35
2019-06-20T06:19:50.111Z,72.34
2019-06-20T06:20:50.096Z,73.80
2019-06-20T06:21:50.064Z,75.12
2019-06-20T06:22:50.057Z,76.07
2019-06-20T06:23:50.008Z,75.87
2019-06-20T06:24:49.999Z,74.14
2019-06-20T06:25:49.987Z,74.34
2019-06-20T06:26:50.007Z,74.95
2019-06-20T06:27:49.982Z,74.55
2019-06-20T06:28:49.949Z,73.87
2019-06-20T06:29:49.941Z,72.85
2019-06-20T06:30:49.937Z,73.67
2019-06-20T06:31:49.956Z,73.26
2019-06-20T06:32:49.908Z,73.33
2019-06-20T06:33:49.895Z,74.04
2019-06-20T06:34:49.887Z,75.73
2019-06-20T06:35:49.874Z,72.85
2019-06-20T06:36:49.948Z,72.55
2019-06-20T06:37:49.857Z,72.96
2019-06-20T06:38:49.842Z,75.19
2019-06-20T06:39:49.841Z,75.29
2019-06-20T06:40:49.816Z,74.27
2019-06-20T06:41:49.953Z,75.79
2019-06-20T06:42:49.865Z,74.88
2019-06-20T06:43:49.821Z,75.86
2019-06-20T06:44:49.954Z,75.05
2019-06-20T06:45:49.767Z,74.10
2019-06-20T06:46:54.387Z,71.33
2019-06-20T06:47:50.782Z,72.78
2019-06-20T06:48:49.735Z,71.57
2019-06-20T06:49:49.747Z,69.01
2019-06-20T06:50:49.801Z,66.48
2019-06-20T06:51:49.717Z,65.14
2019-06-20T06:52:49.733Z,67.19
2019-06-20T06:53:49.692Z,66.11
2019-06-20T06:54:49.665Z,67.90
2019-06-20T06:55:49.648Z,65.04
2019-06-20T06:56:49.652Z,66.72
2019-06-20T06:57:49.634Z,63.49
2019-06-20T06:58:49.664Z,62.35
2019-06-20T06:59:49.632Z,64.84
2019-06-20T07:00:49.593Z,64.81
2019-06-20T07:01:49.584Z,64.81
2019-06-20T07:02:49.583Z,61.36
2019-06-20T07:03:49.562Z,63.42
2019-06-20T07:04:49.656Z,60.87
2019-06-20T07:05:49.650Z,61.04
2019-06-20T07:06:49.535Z,61.73
2019-06-20T07:07:49.513Z,63.60
2019-06-20T07:08:49.512Z,64.58
2019-06-20T07:09:49.506Z,63.93
2019-06-20T07:10:49.542Z,66.65
2019-06-20T07:11:49.488Z,66.65
2019-06-20T07:12:49.464Z,65.07
2019-06-20T07:13:49.475Z,66.38
2019-06-20T07:14:49.452Z,66.08
2019-06-20T07:15:49.441Z,64.90
2019-06-20T07:16:59.785Z,66.72
2019-06-20T07:17:50.443Z,67.55
2019-06-20T07:18:49.402Z,67.05
2019-06-20T07:19:49.397Z,68.57
2019-06-20T07:20:49.389Z,68.37
2019-06-20T07:21:49.373Z,67.18
2019-06-20T07:22:49.387Z,68.90
2019-06-20T07:23:49.383Z,69.51
2019-06-20T07:24:49.331Z,69.10
2019-06-20T07:25:49.335Z,68.40
2019-06-20T07:26:49.324Z,68.02
2019-06-20T07:27:49.302Z,69.81
2019-06-20T07:28:51.492Z,69.21
2019-06-20T07:29:49.435Z,69.24
2019-06-20T07:30:49.271Z,70.15
2019-06-20T07:31:49.283Z,68.94
2019-06-20T07:32:49.248Z,68.94
2019-06-20T07:33:49.280Z,69.04
2019-06-20T07:34:49.231Z,68.13
2019-06-20T07:35:49.233Z,69.74
2019-06-20T07:36:49.219Z,69.44
2019-06-20T07:37:49.198Z,68.53
2019-06-20T07:38:49.181Z,69.85
2019-06-20T07:39:49.221Z,70.32
2019-06-20T07:40:49.160Z,69.65
2019-06-20T07:41:49.150Z,69.74
2019-06-20T07:42:49.198Z,68.06
2019-06-20T07:43:49.128Z,68.46
2019-06-20T07:44:49.111Z,69.07
2019-06-20T07:46:02.177Z,69.78
2019-06-20T07:46:50.087Z,70.01
2019-06-20T07:47:49.079Z,70.93
2019-06-20T07:48:49.068Z,70.18
2019-06-20T07:49:49.063Z,69.07
2019-06-20T07:50:49.052Z,69.98
2019-06-20T07:51:49.092Z,71.20
2019-06-20T07:53:01.374Z,71.70
2019-06-20T07:53:50.015Z,72.61
2019-06-20T07:54:48.999Z,71.09
2019-06-20T07:55:48.990Z,68.46
2019-06-20T07:56:48.989Z,69.27
2019-06-20T07:57:49.016Z,70.59
2019-06-20T07:58:48.959Z,69.48
2019-06-20T07:59:48.968Z,71.91
2019-06-20T08:00:48.938Z,71.60
2019-06-20T08:01:48.929Z,68.46
2019-06-20T08:02:48.912Z,71.00
2019-06-20T08:03:48.940Z,69.88
2019-06-20T08:04:48.888Z,70.89
2019-06-20T08:05:48.882Z,72.61
2019-06-20T08:06:48.884Z,70.29
2019-06-20T08:07:48.898Z,70.69
2019-06-20T08:08:48.858Z,70.29
2019-06-20T08:09:49.833Z,70.69
2019-06-20T08:10:48.826Z,71.30
2019-06-20T08:11:48.817Z,68.97
2019-06-20T08:12:48.873Z,68.56
2019-06-20T08:13:48.813Z,69.88
2019-06-20T08:14:48.784Z,69.57
2019-06-20T08:15:48.839Z,71.70
2019-06-20T08:16:48.757Z,70.08
2019-06-20T08:17:48.798Z,70.18
2019-06-20T08:18:48.766Z,70.69
2019-06-20T08:19:48.739Z,70.89
2019-06-20T08:20:48.715Z,73.46
2019-06-20T08:21:48.707Z,71.84
2019-06-20T08:22:48.738Z,73.25
2019-06-20T08:23:48.677Z,73.36
2019-06-20T08:24:48.671Z,73.05
2019-06-20T08:25:48.652Z,74.51
2019-06-20T08:26:48.663Z,74.41
2019-06-20T08:27:48.659Z,73.39
2019-06-20T08:28:48.714Z,74.91
2019-06-20T08:29:48.616Z,74.10
2019-06-20T08:30:48.607Z,75.12
2019-06-20T08:31:48.638Z,73.60
2019-06-20T08:32:57.413Z,72.78
2019-06-20T08:33:48.575Z,74.14
2019-06-20T08:34:48.928Z,75.05
2019-06-20T08:35:48.605Z,75.96
2019-06-20T08:36:48.537Z,75.96
2019-06-20T08:37:48.651Z,74.95
2019-06-20T08:38:48.509Z,74.65
2019-06-20T08:39:48.498Z,74.44
2019-06-20T08:40:48.548Z,74.24
2019-06-20T08:41:48.478Z,73.93
2019-06-20T08:42:48.470Z,74.34
2019-06-20T08:43:48.460Z,75.12
2019-06-20T08:44:48.448Z,74.51
2019-06-20T08:45:48.485Z,75.12
2019-06-20T08:46:48.468Z,75.12
2019-06-20T08:47:48.418Z,74.30
2019-06-20T08:48:48.417Z,71.77
2019-06-20T08:49:48.387Z,72.14
2019-06-20T08:50:48.430Z,72.34
2019-06-20T08:51:48.413Z,71.73
2019-06-20T08:52:48.360Z,70.93
2019-06-20T08:53:48.377Z,71.06
2019-06-20T08:54:48.337Z,73.86
2019-06-20T08:55:48.363Z,69.51
2019-06-20T08:56:48.364Z,71.84
2019-06-20T08:57:48.298Z,69.61
2019-06-20T08:58:48.301Z,70.93
2019-06-20T08:59:48.324Z,71.33
2019-06-20T09:00:48.267Z,71.33
2019-06-20T09:01:48.256Z,72.88
2019-06-20T09:02:48.605Z,70.25
2019-06-20T09:03:48.235Z,71.00
2019-06-20T09:04:48.226Z,71.80
2019-06-20T09:05:48.255Z,75.04
2019-06-20T09:06:50.136Z,72.52
2019-06-20T09:07:48.196Z,73.12
2019-06-20T09:08:48.243Z,72.55
2019-06-20T09:09:48.173Z,73.29
2019-06-20T09:10:48.157Z,73.39
2019-06-20T09:11:48.203Z,73.90
2019-06-20T09:12:49.000Z,76.43
2019-06-20T09:13:55.489Z,76.84
2019-06-20T09:14:48.127Z,75.82
2019-06-20T09:15:48.147Z,77.65
2019-06-20T09:16:48.125Z,77.04
2019-06-20T09:17:48.087Z,76.98
2019-06-20T09:18:48.082Z,76.47
2019-06-20T09:19:48.069Z,76.10
2019-06-20T09:20:48.047Z,77.72
2019-06-20T09:21:48.087Z,77.18
2019-06-20T09:22:48.027Z,76.61
2019-06-20T09:23:48.027Z,80.87
2019-06-20T09:24:48.011Z,78.03
2019-06-20T09:25:47.987Z,78.06
2019-06-20T09:26:47.987Z,78.91
2019-06-20T09:27:48.014Z,79.22
2019-06-20T09:28:59.887Z,79.63
2019-06-20T09:29:47.946Z,79.83
2019-06-20T09:30:48.872Z,79.97
2019-06-20T09:31:48.045Z,80.41
2019-06-20T09:32:47.915Z,81.23
2019-06-20T09:33:48.790Z,81.63
2019-06-20T09:34:47.906Z,82.34
2019-06-20T09:35:47.927Z,82.24
2019-06-20T09:36:47.903Z,83.26
2019-06-20T09:37:47.873Z,82.85
2019-06-20T09:38:48.516Z,82.24
2019-06-20T09:39:47.863Z,81.53
2019-06-20T09:40:47.833Z,81.87
2019-06-20T09:41:47.875Z,81.93
2019-06-20T09:42:54.890Z,82.68
2019-06-20T09:43:47.802Z,81.87
2019-06-20T09:44:47.830Z,79.43
2019-06-20T09:45:47.779Z,79.23
2019-06-20T09:46:47.770Z,79.53
2019-06-20T09:47:47.750Z,79.43
2019-06-20T09:48:47.741Z,79.53
2019-06-20T09:49:50.500Z,80.15
2019-06-20T09:50:49.385Z,80.35
2019-06-20T09:51:49.146Z,82.07
2019-06-20T09:52:49.765Z,81.46
2019-06-20T09:53:48.576Z,81.60
2019-06-20T09:54:49.847Z,81.71
2019-06-20T09:55:48.861Z,81.20
2019-06-20T09:56:50.299Z,82.01
2019-06-20T09:57:49.218Z,82.21
2019-06-20T09:58:48.314Z,80.69
2019-06-20T09:59:59.121Z,82.48
2019-06-20T10:00:49.276Z,82.28
2019-06-20T10:01:48.215Z,83.50
2019-06-20T10:02:48.933Z,83.60
2019-06-20T10:03:48.900Z,84.11
2019-06-20T10:04:49.195Z,81.57
2019-06-20T10:05:48.927Z,81.57
2019-06-20T10:06:48.676Z,82.89
2019-06-20T10:07:48.722Z,82.79
2019-06-20T10:08:48.289Z,82.68
2019-06-20T10:09:48.222Z,81.16
2019-06-20T10:10:49.335Z,81.87
2019-06-20T10:11:47.979Z,83.91
2019-06-20T10:12:47.988Z,84.82
2019-06-20T10:13:48.187Z,84.45
2019-06-20T10:14:48.094Z,86.39
2019-06-20T10:15:47.948Z,84.76
2019-06-20T10:16:50.430Z,84.72
2019-06-20T10:17:48.519Z,82.79
2019-06-20T10:18:48.479Z,84.42
2019-06-20T10:19:48.389Z,85.23
2019-06-20T10:20:48.792Z,86.04
2019-06-20T10:21:47.860Z,82.82
2019-06-20T10:22:48.475Z,85.17
2019-06-20T10:23:47.726Z,86.59
2019-06-20T10:24:47.471Z,87.92
2019-06-20T10:25:47.808Z,86.69
2019-06-20T10:26:47.955Z,82.76
2019-06-20T10:27:48.312Z,83.37
2019-06-20T10:28:47.651Z,83.89
2019-06-20T10:29:47.848Z,84.39
2019-06-20T10:30:47.323Z,84.80
2019-06-20T10:31:48.743Z,82.26
2019-06-20T10:32:48.580Z,82.56
2019-06-20T10:33:48.397Z,84.09
2019-06-20T10:34:48.291Z,83.84
2019-06-20T10:35:48.361Z,83.84
2019-06-20T10:36:48.148Z,84.45
2019-06-20T10:37:48.352Z,83.74
2019-06-20T10:38:48.028Z,84.15
2019-06-20T10:39:47.767Z,83.44
2019-06-20T10:40:47.968Z,79.27
2019-06-20T10:41:48.471Z,79.57
2019-06-20T10:42:48.118Z,81.91
2019-06-20T10:43:47.583Z,79.71
2019-06-20T10:44:47.670Z,80.11
2019-06-20T10:45:47.400Z,80.90
2019-06-20T10:46:47.303Z,80.38
2019-06-20T10:47:47.590Z,81.71
2019-06-20T10:48:47.972Z,79.77
2019-06-20T10:49:47.801Z,79.98
2019-06-20T10:50:47.733Z,79.37
2019-06-20T10:51:47.596Z,82.48
2019-06-20T10:52:48.016Z,81.37
2019-06-20T10:53:47.186Z,81.60
2019-06-20T10:54:47.101Z,83.09
2019-06-20T10:55:47.033Z,82.28
2019-06-20T10:56:47.235Z,80.76
2019-06-20T10:57:47.045Z,80.65
2019-06-20T10:58:46.969Z,79.94
2019-06-20T10:59:46.988Z,80.96
2019-06-20T11:00:48.280Z,79.84
2019-06-20T11:01:48.269Z,80.76
2019-06-20T11:02:47.080Z,80.04
2019-06-20T11:03:47.801Z,82.18
2019-06-20T11:04:47.751Z,81.73
2019-06-20T11:05:48.114Z,81.12
2019-06-20T11:06:47.601Z,81.02
2019-06-20T11:07:47.616Z,81.84
2019-06-20T11:08:47.255Z,82.71
2019-06-20T11:09:47.143Z,81.45
2019-06-20T11:10:47.216Z,78.91
2019-06-20T11:11:47.082Z,77.43
2019-06-20T11:12:52.979Z,77.73
2019-06-20T11:13:48.584Z,81.49
2019-06-20T11:14:46.784Z,80.44
2019-06-20T11:15:46.777Z,78.91
2019-06-20T11:16:47.171Z,80.44
2019-06-20T11:17:47.128Z,77.80
2019-06-20T11:18:46.742Z,78.30
2019-06-20T11:19:48.047Z,78.81
2019-06-20T11:20:46.731Z,78.57
2019-06-20T11:21:47.725Z,76.34
2019-06-20T11:22:47.782Z,76.75
2019-06-20T11:23:47.441Z,79.96
2019-06-20T11:24:47.446Z,76.71
2019-06-20T11:25:46.736Z,76.91
2019-06-20T11:26:47.862Z,76.57
2019-06-20T11:27:47.293Z,76.03
2019-06-20T11:28:46.631Z,76.29
2019-06-20T11:29:46.634Z,76.87
2019-06-20T11:30:58.159Z,74.04
2019-06-20T11:31:48.264Z,74.84
2019-06-20T11:32:48.603Z,76.16
2019-06-20T11:33:46.579Z,73.53
2019-06-20T11:34:47.540Z,76.20
2019-06-20T11:35:47.892Z,73.49
2019-06-20T11:36:46.815Z,75.21
2019-06-20T11:37:47.237Z,72.38
2019-06-20T11:38:46.909Z,74.24
2019-06-20T11:39:47.456Z,74.07
2019-06-20T11:40:46.534Z,73.52
2019-06-20T11:41:46.503Z,73.59
2019-06-20T11:42:46.923Z,71.06
2019-06-20T11:43:46.882Z,72.58
2019-06-20T11:44:47.483Z,71.44
2019-06-20T11:45:47.216Z,70.39
2019-06-20T11:46:47.137Z,70.06
2019-06-20T11:47:47.393Z,71.67
2019-06-20T11:48:47.100Z,69.01
2019-06-20T11:49:46.994Z,68.74
2019-06-20T11:50:46.625Z,69.45
2019-06-20T11:51:46.401Z,68.21
2019-06-20T11:52:46.374Z,67.60
2019-06-20T11:53:46.409Z,70.32
2019-06-20T11:54:46.372Z,69.68
2019-06-20T11:55:46.345Z,66.29
2019-06-20T11:56:46.323Z,69.35
2019-06-20T11:57:46.311Z,71.73
2019-06-20T11:58:46.301Z,73.08
2019-06-20T11:59:46.341Z,71.73
2019-06-20T12:01:02.454Z,72.41
2019-06-20T12:01:47.360Z,66.47
2019-06-20T12:02:46.326Z,70.32
2019-06-20T12:03:46.711Z,70.86
2019-06-20T12:04:47.105Z,71.37
2019-06-20T12:05:47.284Z,68.31
2019-06-20T12:06:47.169Z,70.62
2019-06-20T12:07:47.875Z,66.42
2019-06-20T12:08:46.808Z,68.61
2019-06-20T12:09:46.567Z,64.54
2019-06-20T12:10:47.322Z,65.95
2019-06-20T12:11:46.798Z,66.29
2019-06-20T12:12:46.918Z,65.28
2019-06-20T12:13:46.501Z,66.16
2019-06-20T12:14:46.784Z,66.76
2019-06-20T12:15:46.675Z,65.05
2019-06-20T12:16:46.439Z,64.01
2019-06-20T12:17:47.152Z,65.59
2019-06-20T12:18:47.235Z,68.21
2019-06-20T12:19:46.710Z,62.70
2019-06-20T12:20:46.816Z,62.57
2019-06-20T12:21:46.920Z,66.77
2019-06-20T12:22:46.647Z,62.41
2019-06-20T12:23:46.850Z,61.30
2019-06-20T12:24:46.698Z,59.08
2019-06-20T12:25:46.575Z,61.05
2019-06-20T12:26:46.820Z,60.58
2019-06-20T12:27:47.513Z,63.50
2019-06-20T12:28:46.650Z,58.36
2019-06-20T12:29:46.524Z,63.50
2019-06-20T12:30:45.947Z,62.97
2019-06-20T12:31:45.963Z,61.13
2019-06-20T12:32:46.860Z,58.54
2019-06-20T12:33:47.173Z,60.78
2019-06-20T12:34:46.609Z,61.46
2019-06-20T12:35:46.716Z,55.39
2019-06-20T12:36:46.632Z,59.44
2019-06-20T12:37:46.010Z,61.43
2019-06-20T12:38:46.255Z,59.52
2019-06-20T12:39:46.368Z,62.21
2019-06-20T12:40:46.223Z,60.32
2019-06-20T12:41:45.862Z,60.72
2019-06-20T12:42:46.830Z,58.61
2019-06-20T12:43:46.311Z,61.80
2019-06-20T12:44:46.072Z,58.95
2019-06-20T12:45:47.136Z,57.65
2019-06-20T12:46:46.984Z,58.15
2019-06-20T12:47:46.250Z,59.36
2019-06-20T12:48:46.959Z,61.85
2019-06-20T12:49:45.925Z,58.70
2019-06-20T12:50:45.736Z,57.57
2019-06-20T12:51:46.707Z,51.24
2019-06-20T12:52:47.163Z,53.05